createdAt,value
2018-09-18T00:01:27.732Z,2.37
2018-09-18T00:03:56.069Z,2.30
2018-09-18T00:06:24.403Z,2.70
2018-09-18T00:08:52.847Z,2.40
2018-09-18T00:11:21.169Z,2.20
2018-09-18T00:13:49.547Z,2.60
2018-09-18T00:16:17.903Z,1.83
2018-09-18T00:18:46.335Z,2.40
2018-09-18T00:21:14.795Z,2.77
2018-09-18T00:23:43.144Z,1.40
2018-09-18T00:26:11.911Z,2.30
2018-09-18T00:28:40.237Z,2.60
2018-09-18T00:31:08.603Z,1.83
2018-09-18T00:33:36.953Z,2.33
2018-09-18T00:36:05.480Z,2.20
2018-09-18T00:38:33.845Z,1.97
2018-09-18T00:41:02.189Z,2.67
2018-09-18T00:43:30.523Z,2.20
2018-09-18T00:45:58.913Z,2.73
2018-09-18T00:48:27.704Z,3.03
2018-09-18T00:50:56.082Z,2.90
2018-09-18T00:53:24.455Z,2.20
2018-09-18T00:55:52.764Z,2.53
2018-09-18T00:58:21.158Z,2.10
2018-09-18T01:00:49.511Z,2.10
2018-09-18T01:03:18.594Z,2.80
2018-09-18T01:05:46.925Z,1.97
2018-09-18T01:08:15.248Z,2.60
2018-09-18T01:10:43.602Z,2.60
2018-09-18T01:13:11.948Z,2.47
2018-09-18T01:15:40.382Z,2.37
2018-09-18T01:18:08.714Z,3.27
2018-09-18T01:20:37.654Z,2.73
2018-09-18T01:23:06.058Z,2.30
2018-09-18T01:25:34.390Z,2.27
2018-09-18T01:28:02.728Z,2.73
2018-09-18T01:30:31.952Z,1.73
2018-09-18T01:33:00.438Z,2.00
2018-09-18T01:35:28.800Z,2.33
2018-09-18T01:37:57.127Z,2.80
2018-09-18T01:40:25.480Z,2.50
2018-09-18T01:42:53.800Z,2.47
2018-09-18T01:45:22.138Z,2.00
2018-09-18T01:47:50.504Z,2.40
2018-09-18T01:50:18.822Z,2.60
2018-09-18T01:52:47.180Z,2.13
2018-09-18T01:55:15.513Z,3.00
2018-09-18T01:57:43.842Z,2.60
2018-09-18T02:00:12.236Z,3.03
2018-09-18T02:02:41.258Z,2.77
2018-09-18T02:05:09.578Z,2.40
2018-09-18T02:07:38.573Z,2.80
2018-09-18T02:10:06.890Z,3.63
2018-09-18T02:12:35.212Z,2.80
2018-09-18T02:15:03.563Z,2.60
2018-09-18T02:17:31.902Z,2.37
2018-09-18T02:20:00.228Z,3.20
2018-09-18T02:22:28.590Z,2.47
2018-09-18T02:27:31.678Z,2.60
2018-09-18T02:30:00.142Z,3.37
2018-09-18T02:32:28.533Z,2.50
2018-09-18T02:34:56.844Z,3.20
2018-09-18T02:37:25.310Z,2.50
2018-09-18T02:39:53.680Z,2.97
2018-09-18T02:42:22.672Z,2.63
2018-09-18T02:44:51.398Z,2.50
2018-09-18T02:47:19.837Z,2.50
2018-09-18T02:49:48.809Z,1.80
2018-09-18T02:52:17.188Z,2.37
2018-09-18T02:54:45.540Z,1.80
2018-09-18T02:57:20.457Z,2.23
2018-09-18T02:59:48.812Z,2.03
2018-09-18T03:02:17.144Z,2.23
2018-09-18T03:04:45.580Z,2.33
2018-09-18T03:07:13.936Z,2.87
2018-09-18T03:09:42.243Z,3.07
2018-09-18T03:12:10.634Z,3.63
2018-09-18T03:14:39.006Z,3.53
2018-09-18T03:17:07.366Z,2.90
2018-09-18T03:19:35.728Z,2.90
2018-09-18T03:22:04.072Z,2.70
2018-09-18T03:24:33.170Z,2.57
2018-09-18T03:27:01.516Z,2.00
2018-09-18T03:29:29.851Z,2.10
2018-09-18T03:31:58.642Z,2.40
2018-09-18T03:34:27.003Z,2.90
2018-09-18T03:36:55.467Z,1.60
2018-09-18T03:39:23.755Z,2.30
2018-09-18T03:41:52.208Z,2.00
2018-09-18T03:44:20.590Z,3.27
2018-09-18T03:46:48.909Z,2.27
2018-09-18T03:49:17.267Z,2.73
2018-09-18T03:51:45.600Z,2.37
2018-09-18T03:54:13.905Z,2.00
2018-09-18T03:56:42.256Z,2.67
2018-09-18T03:59:10.590Z,2.40
2018-09-18T04:01:39.619Z,1.90
2018-09-18T04:04:07.933Z,2.33
2018-09-18T04:06:36.282Z,2.50
2018-09-18T04:09:07.270Z,2.60
2018-09-18T04:11:35.586Z,2.00
2018-09-18T04:14:03.966Z,2.13
2018-09-18T04:16:32.288Z,2.53
2018-09-18T04:19:00.653Z,2.80
2018-09-18T04:21:34.351Z,2.80
2018-09-18T04:24:02.690Z,2.93
2018-09-18T04:26:31.050Z,3.47
2018-09-18T04:28:59.364Z,2.97
2018-09-18T04:31:27.928Z,2.80
2018-09-18T04:33:56.284Z,2.60
2018-09-18T04:36:31.339Z,2.17
2018-09-18T04:39:00.597Z,3.10
2018-09-18T04:41:29.056Z,2.63
2018-09-18T04:43:57.466Z,2.87
2018-09-18T04:46:32.330Z,3.80
2018-09-18T04:49:00.669Z,2.50
2018-09-18T04:51:29.777Z,2.67
2018-09-18T04:53:58.098Z,2.53
2018-09-18T04:56:26.609Z,2.73
2018-09-18T04:58:54.997Z,3.10
2018-09-18T05:01:23.432Z,2.20
2018-09-18T05:03:51.784Z,2.47
2018-09-18T05:06:20.156Z,2.20
2018-09-18T05:08:49.031Z,2.43
2018-09-18T05:11:17.507Z,1.93
2018-09-18T05:13:45.867Z,2.60
2018-09-18T05:16:14.235Z,2.70
2018-09-18T05:18:42.552Z,3.53
2018-09-18T05:21:11.005Z,2.83
2018-09-18T05:23:39.403Z,2.80
2018-09-18T05:26:08.371Z,3.07
2018-09-18T05:28:36.738Z,3.13
2018-09-18T05:31:05.419Z,4.17
2018-09-18T05:33:34.492Z,3.50
2018-09-18T05:36:02.892Z,2.70
2018-09-18T05:38:31.361Z,3.37
2018-09-18T05:40:59.717Z,2.40
2018-09-18T05:43:28.067Z,2.60
2018-09-18T05:45:56.411Z,2.80
2018-09-18T05:48:24.767Z,2.90
2018-09-18T05:50:53.237Z,3.37
2018-09-18T05:53:21.569Z,3.20
2018-09-18T05:55:49.887Z,3.03
2018-09-18T05:58:18.229Z,3.33
2018-09-18T06:00:46.653Z,3.13
2018-09-18T06:03:14.991Z,2.57
2018-09-18T06:05:43.323Z,4.30
2018-09-18T06:08:11.674Z,3.97
2018-09-18T06:10:39.997Z,3.57
2018-09-18T06:13:08.453Z,3.47
2018-09-18T06:15:36.783Z,3.80
2018-09-18T06:18:05.183Z,3.43
2018-09-18T06:20:33.515Z,3.03
2018-09-18T06:23:01.838Z,3.50
2018-09-18T06:25:30.292Z,3.23
2018-09-18T06:27:58.611Z,3.37
2018-09-18T06:30:26.994Z,4.83
2018-09-18T06:32:55.351Z,4.60
2018-09-18T06:35:23.682Z,4.10
2018-09-18T06:37:52.240Z,3.30
2018-09-18T06:40:20.578Z,2.50
2018-09-18T06:42:48.920Z,4.87
2018-09-18T06:45:17.271Z,3.73
2018-09-18T06:47:46.219Z,3.87
2018-09-18T06:50:14.578Z,3.83
2018-09-18T06:52:42.944Z,3.37
2018-09-18T06:55:11.314Z,4.17
2018-09-18T06:57:39.730Z,3.07
2018-09-18T07:00:08.095Z,3.63
2018-09-18T07:02:36.460Z,3.90
2018-09-18T07:05:04.816Z,3.57
2018-09-18T07:07:33.162Z,3.13
2018-09-18T07:10:01.530Z,2.70
2018-09-18T07:12:29.884Z,3.70
2018-09-18T07:14:58.248Z,3.80
2018-09-18T07:17:27.337Z,4.63
2018-09-18T07:19:55.714Z,3.47
2018-09-18T07:22:24.091Z,3.87
2018-09-18T07:24:52.544Z,2.93
2018-09-18T07:27:20.856Z,3.17
2018-09-18T07:29:49.191Z,3.87
2018-09-18T07:32:17.542Z,3.20
2018-09-18T07:34:45.894Z,3.93
2018-09-18T07:37:14.250Z,3.00
2018-09-18T07:39:42.618Z,3.90
2018-09-18T07:42:10.924Z,3.17
2018-09-18T07:44:39.292Z,4.80
2018-09-18T07:47:07.669Z,4.80
2018-09-18T07:49:36.005Z,5.40
2018-09-18T07:52:04.976Z,4.67
2018-09-18T07:54:33.484Z,4.97
2018-09-18T07:57:01.844Z,5.77
2018-09-18T07:59:30.212Z,5.03
2018-09-18T08:01:58.581Z,5.23
2018-09-18T08:04:26.982Z,6.10
2018-09-18T08:06:55.345Z,5.17
2018-09-18T08:09:23.789Z,5.80
2018-09-18T08:11:52.127Z,5.50
2018-09-18T08:14:20.473Z,5.33
2018-09-18T08:16:48.829Z,5.73
2018-09-18T08:19:17.199Z,5.33
2018-09-18T08:21:45.513Z,5.83
2018-09-18T08:24:13.845Z,4.87
2018-09-18T08:26:42.215Z,5.40
2018-09-18T08:29:10.574Z,4.93
2018-09-18T08:31:38.965Z,5.60
2018-09-18T08:34:07.313Z,5.30
2018-09-18T08:36:35.643Z,5.40
2018-09-18T08:39:05.017Z,4.73
2018-09-18T08:41:33.407Z,4.80
2018-09-18T08:44:01.734Z,4.93
2018-09-18T08:46:30.108Z,4.77
2018-09-18T08:48:58.921Z,4.90
2018-09-18T08:51:27.638Z,4.57
2018-09-18T08:53:56.028Z,5.10
2018-09-18T08:56:24.388Z,4.97
2018-09-18T08:58:52.782Z,4.73
2018-09-18T09:01:21.132Z,4.63
2018-09-18T09:03:49.457Z,5.20
2018-09-18T09:06:17.981Z,4.30
2018-09-18T09:08:46.460Z,4.80
2018-09-18T09:11:14.786Z,4.73
2018-09-18T09:13:43.146Z,4.90
2018-09-18T09:16:11.550Z,4.90
2018-09-18T09:18:39.890Z,4.87
2018-09-18T09:21:08.327Z,4.87
2018-09-18T09:23:36.676Z,3.97
2018-09-18T09:26:04.999Z,4.83
2018-09-18T09:28:33.348Z,4.67
2018-09-18T09:31:01.733Z,4.63
2018-09-18T09:33:30.098Z,5.60
2018-09-18T09:35:58.436Z,4.40
2018-09-18T09:38:27.650Z,4.50
2018-09-18T09:40:56.114Z,3.80
2018-09-18T09:43:24.496Z,4.93
2018-09-18T09:45:52.855Z,4.33
2018-09-18T09:48:21.207Z,4.10
2018-09-18T09:50:49.600Z,4.60
2018-09-18T09:53:18.051Z,4.27
2018-09-18T09:55:46.416Z,4.90
2018-09-18T09:58:14.815Z,4.37
2018-09-18T10:00:48.522Z,4.47
2018-09-18T10:03:16.876Z,3.70
2018-09-18T10:05:45.328Z,4.70
2018-09-18T10:08:13.675Z,4.77
2018-09-18T10:10:42.094Z,4.60
2018-09-18T10:13:10.376Z,4.53
2018-09-18T10:15:38.730Z,4.53
2018-09-18T10:18:07.111Z,4.17
2018-09-18T10:20:35.535Z,4.30
2018-09-18T10:23:03.925Z,4.27
2018-09-18T10:25:32.959Z,4.57
2018-09-18T10:28:01.321Z,4.70
2018-09-18T10:30:29.704Z,3.63
2018-09-18T10:32:58.060Z,4.23
2018-09-18T10:35:26.448Z,4.17
2018-09-18T10:37:55.417Z,3.77
2018-09-18T10:40:23.770Z,3.80
2018-09-18T10:42:52.156Z,4.03
2018-09-18T10:45:20.499Z,4.60
2018-09-18T10:47:48.822Z,3.70
2018-09-18T10:50:17.178Z,4.13
2018-09-18T10:52:46.351Z,4.80
2018-09-18T10:55:15.094Z,3.90
2018-09-18T10:57:43.472Z,3.80
2018-09-18T11:00:11.834Z,5.07
2018-09-18T11:02:40.184Z,3.70
2018-09-18T11:05:08.572Z,4.30
2018-09-18T11:07:37.071Z,4.23
2018-09-18T11:10:05.898Z,4.87
2018-09-18T11:12:34.251Z,4.53
2018-09-18T11:15:02.672Z,4.33
2018-09-18T11:17:30.968Z,4.53
2018-09-18T11:19:59.399Z,4.10
2018-09-18T11:22:27.870Z,3.77
2018-09-18T11:24:56.050Z,4.10
2018-09-18T11:27:24.414Z,4.20
2018-09-18T11:29:53.000Z,4.13
2018-09-18T11:32:21.354Z,3.63
2018-09-18T11:34:49.784Z,4.13
2018-09-18T11:37:18.132Z,3.93
2018-09-18T11:39:46.490Z,4.13
2018-09-18T11:42:14.821Z,3.83
2018-09-18T11:44:43.147Z,4.23
2018-09-18T11:47:11.992Z,3.63
2018-09-18T11:49:40.314Z,3.87
2018-09-18T11:52:09.597Z,3.77
2018-09-18T11:54:37.943Z,3.60
2018-09-18T11:57:06.351Z,3.80
2018-09-18T11:59:34.713Z,4.07
2018-09-18T12:02:03.056Z,4.13
2018-09-18T12:04:31.450Z,4.40
2018-09-18T12:07:00.000Z,3.53
2018-09-18T12:09:28.433Z,4.10
2018-09-18T12:11:56.788Z,3.60
2018-09-18T12:14:25.332Z,3.77
2018-09-18T12:16:53.814Z,4.07
2018-09-18T12:19:22.207Z,3.47
2018-09-18T12:21:51.201Z,3.50
2018-09-18T12:24:19.676Z,4.30
2018-09-18T12:26:48.084Z,3.70
2018-09-18T12:29:16.448Z,4.87
2018-09-18T12:31:45.465Z,4.20
2018-09-18T12:34:13.813Z,4.17
2018-09-18T12:36:42.163Z,3.83
2018-09-18T12:39:10.651Z,3.40
2018-09-18T12:41:39.706Z,3.83
2018-09-18T12:44:08.148Z,4.00
2018-09-18T12:46:36.473Z,4.87
2018-09-18T12:49:05.232Z,3.97
2018-09-18T12:51:33.490Z,4.13
2018-09-18T12:54:01.940Z,4.00
2018-09-18T12:56:30.327Z,3.90
2018-09-18T12:58:58.773Z,4.10
2018-09-18T13:01:27.085Z,3.83
2018-09-18T13:03:55.421Z,4.30
2018-09-18T13:06:23.850Z,4.20
2018-09-18T13:08:52.166Z,4.27
2018-09-18T13:11:20.495Z,3.93
2018-09-18T13:13:48.924Z,3.83
2018-09-18T13:16:17.275Z,4.27
2018-09-18T13:18:45.601Z,3.90
2018-09-18T13:21:14.551Z,3.50
2018-09-18T13:23:42.979Z,4.23
2018-09-18T13:26:11.307Z,3.87
2018-09-18T13:28:39.693Z,4.00
2018-09-18T13:31:08.183Z,3.63
2018-09-18T13:33:36.556Z,4.13
2018-09-18T13:36:04.901Z,4.23
2018-09-18T13:38:33.254Z,4.20
2018-09-18T13:41:01.707Z,3.70
2018-09-18T13:43:30.009Z,4.03
2018-09-18T13:45:58.393Z,3.50
2018-09-18T13:48:26.779Z,3.43
2018-09-18T13:50:55.184Z,3.43
2018-09-18T13:53:23.511Z,3.53
2018-09-18T13:55:51.875Z,3.97
2018-09-18T13:58:20.296Z,2.87
2018-09-18T14:00:48.683Z,4.57
2018-09-18T14:03:17.039Z,3.50
2018-09-18T14:05:45.453Z,3.50
2018-09-18T14:08:13.882Z,3.67
2018-09-18T14:10:42.282Z,4.37
2018-09-18T14:13:10.719Z,3.93
2018-09-18T14:15:39.101Z,3.80
2018-09-18T14:18:07.813Z,2.97
2018-09-18T14:20:36.189Z,4.00
2018-09-18T14:23:04.529Z,3.93
2018-09-18T14:25:33.424Z,3.70
2018-09-18T14:28:01.800Z,3.70
2018-09-18T14:30:30.225Z,4.07
2018-09-18T14:32:58.618Z,4.10
2018-09-18T14:35:26.991Z,3.70
2018-09-18T14:37:56.010Z,4.20
2018-09-18T14:40:24.388Z,4.00
2018-09-18T14:42:52.673Z,3.47
2018-09-18T14:45:21.083Z,3.70
2018-09-18T14:47:49.472Z,3.97
2018-09-18T14:50:17.782Z,3.90
2018-09-18T14:52:46.132Z,3.63
2018-09-18T14:55:15.230Z,4.37
2018-09-18T14:57:43.590Z,4.30
2018-09-18T15:00:12.032Z,3.83
2018-09-18T15:02:40.342Z,4.00
2018-09-18T15:05:08.719Z,3.30
2018-09-18T15:07:37.135Z,3.70
2018-09-18T15:10:05.854Z,4.17
2018-09-18T15:12:34.305Z,3.77
2018-09-18T15:15:02.648Z,3.70
2018-09-18T15:17:31.019Z,3.90
2018-09-18T15:19:59.350Z,3.77
2018-09-18T15:22:27.782Z,3.90
2018-09-18T15:24:56.179Z,3.80
2018-09-18T15:27:24.549Z,4.33
2018-09-18T15:29:52.902Z,4.17
2018-09-18T15:32:21.302Z,3.50
2018-09-18T15:34:49.768Z,4.67
2018-09-18T15:37:18.089Z,3.47
2018-09-18T15:39:47.715Z,3.30
2018-09-18T15:42:16.117Z,3.57
2018-09-18T15:44:44.472Z,3.07
2018-09-18T15:47:12.832Z,3.00
2018-09-18T15:49:41.239Z,4.27
2018-09-18T15:52:09.620Z,3.63
2018-09-18T15:54:37.974Z,4.27
2018-09-18T15:57:06.387Z,4.63
2018-09-18T15:59:35.659Z,4.53
2018-09-18T16:02:04.041Z,6.83
2018-09-18T16:04:32.374Z,6.40
2018-09-18T16:07:00.782Z,4.77
2018-09-18T16:09:29.143Z,4.90
2018-09-18T16:11:57.482Z,4.77
2018-09-18T16:14:26.019Z,4.00
2018-09-18T16:16:54.307Z,5.63
2018-09-18T16:19:22.649Z,4.53
2018-09-18T16:21:51.298Z,5.63
2018-09-18T16:24:19.681Z,6.23
2018-09-18T16:26:48.756Z,4.60
2018-09-18T16:29:17.137Z,4.13
2018-09-18T16:31:45.538Z,3.73
2018-09-18T16:34:13.996Z,3.97
2018-09-18T16:36:42.417Z,5.37
2018-09-18T16:39:10.747Z,4.30
2018-09-18T16:41:39.083Z,5.77
2018-09-18T16:44:07.481Z,4.27
2018-09-18T16:46:35.854Z,4.27
2018-09-18T16:49:04.654Z,2.60
2018-09-18T16:51:33.302Z,4.97
2018-09-18T16:54:01.951Z,6.03
2018-09-18T16:56:30.407Z,3.90
2018-09-18T16:58:58.727Z,2.90
2018-09-18T17:01:27.129Z,4.93
2018-09-18T17:03:55.489Z,5.40
2018-09-18T17:06:24.039Z,5.70
2018-09-18T17:08:53.342Z,3.73
2018-09-18T17:11:23.109Z,3.00
2018-09-18T17:13:51.461Z,1.87
2018-09-18T17:16:19.941Z,2.97
2018-09-18T17:18:54.829Z,1.80
2018-09-18T17:21:23.257Z,3.10
2018-09-18T17:23:51.746Z,2.80
2018-09-18T17:26:20.141Z,3.03
2018-09-18T17:28:49.393Z,3.90
2018-09-18T17:31:17.509Z,3.07
2018-09-18T17:33:45.912Z,2.77
2018-09-18T17:36:14.327Z,3.40
2018-09-18T17:38:42.723Z,2.57
2018-09-18T17:41:11.090Z,3.17
2018-09-18T17:43:39.529Z,3.33
2018-09-18T17:46:07.970Z,4.00
2018-09-18T17:48:36.285Z,3.17
2018-09-18T17:51:05.236Z,4.30
2018-09-18T17:53:34.384Z,5.63
2018-09-18T17:56:02.702Z,4.20
2018-09-18T17:58:31.683Z,4.43
2018-09-18T18:01:00.176Z,3.70
2018-09-18T18:03:28.612Z,3.30
2018-09-18T18:05:56.985Z,4.60
2018-09-18T18:08:25.439Z,4.53
2018-09-18T18:10:53.726Z,4.10
2018-09-18T18:13:22.108Z,4.10
2018-09-18T18:15:50.564Z,3.83
2018-09-18T18:18:18.936Z,3.70
2018-09-18T18:20:47.342Z,3.23
2018-09-18T18:23:15.677Z,4.50
2018-09-18T18:25:44.064Z,4.47
2018-09-18T18:28:12.476Z,4.30
2018-09-18T18:30:40.808Z,5.17
2018-09-18T18:33:09.176Z,3.63
2018-09-18T18:35:37.640Z,4.60
2018-09-18T18:38:06.008Z,2.97
2018-09-18T18:40:34.361Z,3.33
2018-09-18T18:43:02.724Z,3.60
2018-09-18T18:45:31.138Z,3.13
2018-09-18T18:47:59.740Z,5.23
2018-09-18T18:50:28.002Z,6.13
2018-09-18T18:52:56.400Z,5.20
2018-09-18T18:55:24.769Z,4.30
2018-09-18T18:57:53.122Z,5.33
2018-09-18T19:00:21.585Z,4.63
2018-09-18T19:02:49.953Z,4.87
2018-09-18T19:05:18.416Z,3.70
2018-09-18T19:07:47.349Z,3.47
2018-09-18T19:10:15.879Z,3.77
2018-09-18T19:12:44.279Z,5.03
2018-09-18T19:15:12.606Z,5.97
2018-09-18T19:17:40.978Z,6.37
2018-09-18T19:20:09.498Z,4.67
2018-09-18T19:22:38.116Z,4.17
2018-09-18T19:25:06.609Z,4.87
2018-09-18T19:27:34.967Z,3.40
2018-09-18T19:30:03.537Z,6.43
2018-09-18T19:32:32.017Z,6.03
2018-09-18T19:35:00.370Z,5.10
2018-09-18T19:37:29.575Z,3.40
2018-09-18T19:39:58.999Z,4.53
2018-09-18T19:42:27.360Z,6.20
2018-09-18T19:44:55.883Z,5.97
2018-09-18T19:47:24.217Z,6.97
2018-09-18T19:49:52.753Z,7.40
2018-09-18T19:52:21.267Z,6.20
2018-09-18T19:54:49.660Z,5.77
2018-09-18T19:57:18.021Z,4.83
2018-09-18T19:59:46.370Z,5.00
2018-09-18T20:02:14.732Z,6.03
2018-09-18T20:04:43.111Z,5.73
2018-09-18T20:07:11.515Z,3.90
2018-09-18T20:09:39.880Z,4.13
2018-09-18T20:12:08.203Z,4.23
2018-09-18T20:14:36.591Z,3.93
2018-09-18T20:17:05.364Z,5.90
2018-09-18T20:19:34.699Z,5.07
2018-09-18T20:22:03.041Z,3.73
2018-09-18T20:24:31.425Z,3.87
2018-09-18T20:27:00.513Z,6.17
2018-09-18T20:29:28.882Z,3.73
2018-09-18T20:31:57.324Z,6.53
2018-09-18T20:34:25.679Z,4.30
2018-09-18T20:36:54.031Z,5.00
2018-09-18T20:39:22.443Z,4.80
2018-09-18T20:41:50.918Z,4.23
2018-09-18T20:44:19.221Z,3.67
2018-09-18T20:46:47.559Z,4.50
2018-09-18T20:49:15.940Z,3.40
2018-09-18T20:51:44.318Z,3.50
2018-09-18T20:54:12.647Z,3.37
2018-09-18T20:56:40.991Z,3.50
2018-09-18T20:59:09.315Z,3.80
2018-09-18T21:01:37.661Z,3.67
2018-09-18T21:04:06.172Z,3.73
2018-09-18T21:06:34.491Z,3.37
2018-09-18T21:09:02.909Z,3.37
2018-09-18T21:11:31.230Z,3.10
2018-09-18T21:13:59.563Z,3.13
2018-09-18T21:16:27.902Z,4.53
2018-09-18T21:18:56.318Z,3.70
2018-09-18T21:21:25.273Z,4.03
2018-09-18T21:23:53.596Z,5.30
2018-09-18T21:26:21.944Z,7.57
2018-09-18T21:28:50.770Z,5.70
2018-09-18T21:31:19.100Z,5.57
2018-09-18T21:33:47.427Z,4.77
2018-09-18T21:36:15.790Z,4.13
2018-09-18T21:38:44.369Z,4.67
2018-09-18T21:41:12.805Z,5.40
2018-09-18T21:43:41.169Z,5.77
2018-09-18T21:46:09.459Z,5.00
2018-09-18T21:48:37.857Z,6.50
2018-09-18T21:51:12.817Z,7.57
2018-09-18T21:53:41.243Z,7.03
2018-09-18T21:56:09.567Z,5.10
2018-09-18T21:58:38.517Z,4.50
2018-09-18T22:01:07.298Z,4.90
2018-09-18T22:03:35.848Z,3.97
2018-09-18T22:06:04.341Z,3.40
2018-09-18T22:08:32.691Z,4.63
2018-09-18T22:11:01.031Z,5.17
2018-09-18T22:13:29.349Z,5.13
2018-09-18T22:15:57.715Z,5.50
2018-09-18T22:18:26.096Z,3.53
2018-09-18T22:20:54.422Z,4.60
2018-09-18T22:23:22.769Z,4.00
2018-09-18T22:25:51.109Z,3.60
2018-09-18T22:28:19.538Z,4.33
2018-09-18T22:30:47.896Z,5.13
2018-09-18T22:33:16.225Z,6.17
2018-09-18T22:35:44.586Z,4.97
2018-09-18T22:38:13.010Z,4.77
2018-09-18T22:40:41.381Z,5.47
2018-09-18T22:43:09.779Z,4.13
2018-09-18T22:45:38.098Z,4.17
2018-09-18T22:48:07.166Z,4.03
2018-09-18T22:50:35.610Z,3.90
2018-09-18T22:53:04.742Z,3.77
2018-09-18T22:55:33.127Z,4.70
2018-09-18T22:58:01.475Z,4.00
2018-09-18T23:00:29.828Z,5.27
2018-09-18T23:02:58.185Z,7.00
2018-09-18T23:05:26.615Z,4.40
2018-09-18T23:07:54.986Z,7.50
2018-09-18T23:10:23.297Z,7.43
2018-09-18T23:15:26.465Z,7.50
2018-09-18T23:17:55.664Z,8.27
2018-09-18T23:20:24.010Z,5.20
2018-09-18T23:22:52.324Z,5.40
2018-09-18T23:25:20.620Z,4.30
2018-09-18T23:27:48.958Z,4.07
2018-09-18T23:30:17.282Z,4.70
2018-09-18T23:32:46.243Z,4.23
2018-09-18T23:35:14.542Z,3.63
2018-09-18T23:37:42.882Z,4.40
2018-09-18T23:40:11.248Z,5.10
2018-09-18T23:42:39.596Z,4.53
2018-09-18T23:45:07.956Z,5.30
2018-09-18T23:47:36.264Z,4.53
2018-09-18T23:50:04.732Z,6.10
2018-09-18T23:52:33.085Z,6.47
2018-09-18T23:55:01.415Z,6.33
2018-09-18T23:57:29.798Z,5.43
2018-09-18T23:59:58.126Z,7.20
